createdAt,value
2022-08-22T00:00:43.761Z,100.00
2022-08-22T00:02:41.796Z,67.67
2022-08-22T00:03:03.717Z,66.67
2022-08-22T00:05:36.871Z,100.00
2022-08-22T00:07:51.672Z,100.00
2022-08-22T00:10:01.539Z,100.00
2022-08-22T00:12:14.968Z,100.00
2022-08-22T00:14:25.072Z,100.00
2022-08-22T00:16:38.482Z,100.00
2022-08-22T00:18:50.864Z,100.00
2022-08-22T00:21:09.091Z,100.00
2022-08-22T00:23:18.372Z,100.00
2022-08-22T00:25:37.135Z,100.00
2022-08-22T00:27:50.138Z,100.00
2022-08-22T00:29:59.005Z,100.00
2022-08-22T00:32:11.943Z,100.00
2022-08-22T00:34:30.055Z,100.00
2022-08-22T00:36:39.528Z,100.00
2022-08-22T00:38:52.189Z,100.00
2022-08-22T00:41:03.716Z,100.00
2022-08-22T00:43:42.129Z,100.00
2022-08-22T00:46:18.515Z,100.00
2022-08-22T00:48:58.336Z,100.00
2022-08-22T00:51:48.314Z,100.00
2022-08-22T00:53:59.781Z,100.00
2022-08-22T00:56:28.410Z,100.00
2022-08-22T00:58:56.142Z,100.00
2022-08-22T01:01:16.493Z,100.00
2022-08-22T01:03:56.464Z,100.00
2022-08-22T01:06:18.654Z,100.00
2022-08-22T01:08:39.345Z,100.00
2022-08-22T01:10:56.207Z,100.00
2022-08-22T01:13:22.245Z,100.00
2022-08-22T01:15:30.504Z,100.00
2022-08-22T01:18:07.045Z,100.00
2022-08-22T01:20:45.074Z,100.00
2022-08-22T01:23:17.781Z,100.00
2022-08-22T01:26:04.291Z,100.00
2022-08-22T01:28:45.009Z,100.00
2022-08-22T01:31:22.757Z,100.00
2022-08-22T01:33:58.470Z,100.00
2022-08-22T01:36:22.818Z,100.00
2022-08-22T01:38:51.981Z,100.00
2022-08-22T01:41:20.091Z,100.00
2022-08-22T01:43:58.801Z,100.00
2022-08-22T01:46:24.914Z,100.00
2022-08-22T01:48:38.137Z,100.00
2022-08-22T01:50:46.985Z,100.00
2022-08-22T01:52:59.284Z,100.00
2022-08-22T01:55:11.222Z,100.00
2022-08-22T01:57:16.917Z,100.00
2022-08-22T01:59:34.088Z,100.00
2022-08-22T02:02:01.141Z,100.00
2022-08-22T02:04:11.104Z,100.00
2022-08-22T02:06:23.037Z,100.00
2022-08-22T02:08:38.772Z,100.00
2022-08-22T02:10:54.134Z,100.00
2022-08-22T02:13:08.264Z,100.00
2022-08-22T02:15:21.239Z,100.00
2022-08-22T02:17:32.130Z,100.00
2022-08-22T02:19:47.363Z,100.00
2022-08-22T02:21:58.054Z,100.00
2022-08-22T02:24:14.593Z,100.00
2022-08-22T02:26:25.615Z,100.00
2022-08-22T02:28:39.001Z,100.00
2022-08-22T02:30:52.035Z,100.00
2022-08-22T02:33:04.440Z,100.00
2022-08-22T02:35:18.666Z,100.00
2022-08-22T02:37:33.233Z,100.00
2022-08-22T02:39:44.383Z,100.00
2022-08-22T02:41:56.285Z,100.00
2022-08-22T02:44:13.325Z,100.00
2022-08-22T02:46:28.431Z,100.00
2022-08-22T02:48:42.242Z,100.00
2022-08-22T02:50:53.121Z,100.00
2022-08-22T02:53:05.334Z,100.00
2022-08-22T02:55:16.109Z,100.00
2022-08-22T02:57:30.142Z,100.00
2022-08-22T02:59:57.684Z,100.00
2022-08-22T03:02:36.586Z,100.00
2022-08-22T03:04:51.951Z,100.00
2022-08-22T03:07:23.072Z,100.00
2022-08-22T03:09:33.724Z,100.00
2022-08-22T03:11:44.299Z,100.00
2022-08-22T03:14:01.095Z,100.00
2022-08-22T03:16:16.347Z,100.00
2022-08-22T03:18:27.585Z,100.00
2022-08-22T03:20:47.148Z,100.00
2022-08-22T03:22:58.759Z,100.00
2022-08-22T03:25:12.614Z,100.00
2022-08-22T03:27:23.255Z,100.00
2022-08-22T03:29:45.008Z,100.00
2022-08-22T03:32:08.505Z,100.00
2022-08-22T03:34:23.959Z,100.00
2022-08-22T03:36:30.551Z,100.00
2022-08-22T03:38:54.578Z,100.00
2022-08-22T03:41:30.293Z,100.00
2022-08-22T03:43:59.179Z,100.00
2022-08-22T03:46:34.998Z,100.00
2022-08-22T03:49:12.193Z,100.00
2022-08-22T03:51:29.474Z,100.00
2022-08-22T03:53:56.514Z,100.00
2022-08-22T03:56:26.521Z,100.00
2022-08-22T03:58:53.975Z,100.00
2022-08-22T04:01:26.222Z,100.00
2022-08-22T04:04:10.374Z,100.00
2022-08-22T04:06:56.342Z,100.00
2022-08-22T04:09:29.085Z,100.00
2022-08-22T04:11:51.308Z,100.00
2022-08-22T04:14:13.161Z,100.00
2022-08-22T04:16:45.066Z,100.00
2022-08-22T04:19:11.154Z,100.00
2022-08-22T04:21:39.278Z,100.00
2022-08-22T04:24:14.440Z,100.00
2022-08-22T04:26:33.347Z,100.00
2022-08-22T04:28:42.073Z,100.00
2022-08-22T04:30:52.194Z,100.00
2022-08-22T04:33:05.195Z,100.00
2022-08-22T04:35:24.228Z,100.00
2022-08-22T04:37:36.384Z,100.00
2022-08-22T04:39:47.341Z,100.00
2022-08-22T04:42:03.521Z,100.00
2022-08-22T04:44:22.569Z,100.00
2022-08-22T04:46:37.013Z,100.00
2022-08-22T04:48:47.951Z,100.00
2022-08-22T04:50:58.290Z,100.00
2022-08-22T04:53:17.151Z,100.00
2022-08-22T04:55:32.538Z,100.00
2022-08-22T04:57:48.878Z,100.00
2022-08-22T04:59:57.896Z,100.00
2022-08-22T05:02:04.415Z,100.00
2022-08-22T05:04:12.150Z,100.00
2022-08-22T05:06:19.437Z,100.00
2022-08-22T05:08:31.161Z,100.00
2022-08-22T05:10:38.468Z,100.00
2022-08-22T05:12:47.991Z,100.00
2022-08-22T05:14:58.558Z,100.00
2022-08-22T05:17:06.035Z,100.00
2022-08-22T05:19:16.901Z,100.00
2022-08-22T05:21:27.292Z,100.00
2022-08-22T05:23:38.710Z,100.00
2022-08-22T05:25:45.468Z,100.00
2022-08-22T05:27:56.408Z,100.00
2022-08-22T05:30:05.828Z,100.00
2022-08-22T05:32:19.146Z,100.00
2022-08-22T05:34:31.905Z,100.00
2022-08-22T05:36:44.443Z,100.00
2022-08-22T05:38:54.564Z,100.00
2022-08-22T05:41:05.627Z,100.00
2022-08-22T05:43:15.323Z,100.00
2022-08-22T05:45:21.475Z,100.00
2022-08-22T05:47:35.200Z,100.00
2022-08-22T05:49:49.649Z,100.00
2022-08-22T05:52:07.253Z,100.00
2022-08-22T05:54:19.397Z,100.00
2022-08-22T05:56:37.415Z,100.00
2022-08-22T05:58:54.422Z,100.00
2022-08-22T06:01:08.797Z,100.00
2022-08-22T06:03:18.780Z,100.00
2022-08-22T06:05:27.375Z,100.00
2022-08-22T06:07:40.278Z,100.00
2022-08-22T06:10:07.622Z,100.00
2022-08-22T06:12:21.854Z,100.00
2022-08-22T06:14:38.604Z,100.00
2022-08-22T06:16:50.004Z,100.00
2022-08-22T06:18:56.203Z,100.00
2022-08-22T06:21:03.689Z,100.00
2022-08-22T06:23:17.144Z,100.00
2022-08-22T06:25:26.288Z,100.00
2022-08-22T06:27:31.475Z,100.00
2022-08-22T06:29:40.759Z,100.00
2022-08-22T06:31:49.900Z,100.00
2022-08-22T06:34:00.957Z,100.00
2022-08-22T06:36:12.323Z,100.00
2022-08-22T06:38:22.353Z,100.00
2022-08-22T06:40:29.461Z,100.00
2022-08-22T06:42:38.335Z,100.00
2022-08-22T06:44:47.455Z,100.00
2022-08-22T06:46:56.088Z,100.00
2022-08-22T06:49:02.801Z,100.00
2022-08-22T06:51:08.769Z,100.00
2022-08-22T06:53:18.363Z,100.00
2022-08-22T06:55:25.123Z,100.00
2022-08-22T06:57:34.727Z,100.00
2022-08-22T06:59:42.036Z,100.00
2022-08-22T07:01:52.361Z,100.00
2022-08-22T07:04:08.990Z,100.00
2022-08-22T07:06:18.611Z,100.00
2022-08-22T07:08:25.364Z,100.00
2022-08-22T07:10:30.552Z,100.00
2022-08-22T07:12:37.213Z,100.00
2022-08-22T07:14:46.326Z,100.00
2022-08-22T07:16:58.289Z,100.00
2022-08-22T07:19:03.368Z,100.00
2022-08-22T07:21:08.160Z,100.00
2022-08-22T07:23:24.828Z,100.00
2022-08-22T07:25:31.139Z,100.00
2022-08-22T07:27:51.282Z,100.00
2022-08-22T07:30:10.035Z,100.00
2022-08-22T07:32:21.055Z,100.00
2022-08-22T07:34:39.087Z,100.00
2022-08-22T07:36:49.337Z,100.00
2022-08-22T07:39:11.097Z,100.00
2022-08-22T07:41:20.811Z,100.00
2022-08-22T07:43:31.897Z,100.00
2022-08-22T07:45:43.416Z,100.00
2022-08-22T07:48:01.433Z,100.00
2022-08-22T07:50:14.526Z,100.00
2022-08-22T07:52:20.083Z,100.00
2022-08-22T07:54:31.858Z,100.00
2022-08-22T07:56:48.771Z,100.00
2022-08-22T07:58:57.209Z,100.00
2022-08-22T08:01:03.056Z,100.00
2022-08-22T08:03:09.663Z,100.00
2022-08-22T08:05:15.557Z,100.00
2022-08-22T08:07:28.087Z,100.00
2022-08-22T08:09:37.703Z,100.00
2022-08-22T08:11:44.531Z,100.00
2022-08-22T08:13:57.393Z,100.00
2022-08-22T08:16:05.025Z,100.00
2022-08-22T08:18:13.754Z,100.00
2022-08-22T08:20:25.021Z,100.00
2022-08-22T08:22:31.054Z,100.00
2022-08-22T08:24:40.266Z,100.00
2022-08-22T08:26:54.490Z,100.00
2022-08-22T08:29:00.777Z,100.00
2022-08-22T08:31:14.909Z,100.00
2022-08-22T08:33:25.156Z,100.00
2022-08-22T08:35:42.418Z,100.00
2022-08-22T08:38:07.062Z,100.00
2022-08-22T08:40:34.356Z,100.00
2022-08-22T08:42:57.835Z,100.00
2022-08-22T08:45:23.747Z,100.00
2022-08-22T08:47:40.857Z,100.00
2022-08-22T08:50:02.937Z,100.00
2022-08-22T08:52:40.487Z,100.00
2022-08-22T08:55:19.649Z,100.00
2022-08-22T08:57:43.536Z,100.00
2022-08-22T09:00:00.551Z,100.00
2022-08-22T09:02:20.343Z,100.00
2022-08-22T09:04:52.558Z,100.00
2022-08-22T09:07:30.545Z,100.00
2022-08-22T09:10:00.967Z,100.00
2022-08-22T09:12:20.463Z,100.00
2022-08-22T09:14:44.502Z,100.00
2022-08-22T09:17:14.501Z,100.00
2022-08-22T09:19:56.608Z,100.00
2022-08-22T09:22:24.732Z,100.00
2022-08-22T09:24:54.032Z,100.00
2022-08-22T09:27:02.512Z,100.00
2022-08-22T09:29:31.572Z,100.00
2022-08-22T09:31:51.502Z,100.00
2022-08-22T09:34:05.222Z,100.00
2022-08-22T09:36:18.737Z,100.00
2022-08-22T09:38:48.044Z,100.00
2022-08-22T09:41:02.322Z,100.00
2022-08-22T09:43:11.730Z,100.00
2022-08-22T09:45:48.052Z,100.00
2022-08-22T09:48:02.251Z,100.00
2022-08-22T09:50:19.824Z,100.00
2022-08-22T09:52:50.785Z,100.00
2022-08-22T09:55:04.319Z,100.00
2022-08-22T09:57:28.114Z,100.00
2022-08-22T09:59:50.540Z,100.00
2022-08-22T10:02:02.584Z,100.00
2022-08-22T10:04:43.142Z,100.00
2022-08-22T10:06:59.234Z,100.00
2022-08-22T10:09:09.998Z,100.00
2022-08-22T10:11:26.139Z,100.00
2022-08-22T10:13:43.930Z,100.00
2022-08-22T10:15:55.592Z,100.00
2022-08-22T10:18:26.325Z,100.00
2022-08-22T10:20:37.935Z,100.00
2022-08-22T10:22:57.047Z,100.00
2022-08-22T10:25:19.743Z,100.00
2022-08-22T10:27:42.108Z,100.00
2022-08-22T10:30:04.234Z,100.00
2022-08-22T10:32:25.185Z,100.00
2022-08-22T10:34:37.090Z,100.00
2022-08-22T10:36:56.930Z,100.00
2022-08-22T10:39:10.950Z,100.00
2022-08-22T10:41:27.968Z,100.00
2022-08-22T10:43:44.085Z,100.00
2022-08-22T10:45:54.801Z,100.00
2022-08-22T10:48:37.033Z,100.00
2022-08-22T10:50:47.869Z,100.00
2022-08-22T10:52:57.445Z,100.00
2022-08-22T10:55:12.672Z,100.00
2022-08-22T10:57:29.467Z,100.00
2022-08-22T10:59:45.647Z,100.00
2022-08-22T11:02:14.306Z,100.00
2022-08-22T11:04:38.194Z,100.00
2022-08-22T11:06:51.107Z,100.00
2022-08-22T11:09:13.826Z,100.00
2022-08-22T11:11:36.689Z,99.90
2022-08-22T11:13:51.345Z,99.65
2022-08-22T11:16:04.399Z,99.54
2022-08-22T11:18:25.461Z,99.68
2022-08-22T11:20:36.946Z,99.23
2022-08-22T11:22:49.412Z,99.36
2022-08-22T11:25:13.225Z,99.56
2022-08-22T11:27:37.883Z,99.27
2022-08-22T11:29:56.964Z,99.45
2022-08-22T11:32:11.580Z,99.23
2022-08-22T11:34:30.701Z,98.58
2022-08-22T11:36:40.168Z,98.05
2022-08-22T11:38:59.114Z,97.61
2022-08-22T11:41:15.184Z,96.49
2022-08-22T11:43:37.241Z,97.10
2022-08-22T11:45:47.014Z,97.27
2022-08-22T11:48:01.944Z,95.21
2022-08-22T11:50:15.805Z,95.77
2022-08-22T11:52:51.759Z,95.04
2022-08-22T11:55:21.547Z,94.64
2022-08-22T11:57:37.697Z,94.43
2022-08-22T12:00:01.712Z,95.13
2022-08-22T12:02:37.319Z,94.47
2022-08-22T12:04:46.212Z,93.86
2022-08-22T12:07:01.958Z,93.68
2022-08-22T12:09:40.993Z,93.93
2022-08-22T12:11:56.524Z,94.29
2022-08-22T12:14:06.848Z,94.08
2022-08-22T12:16:19.709Z,94.10
2022-08-22T12:18:47.780Z,94.21
2022-08-22T12:21:25.882Z,93.61
2022-08-22T12:23:50.239Z,93.74
2022-08-22T12:26:11.441Z,93.40
2022-08-22T12:28:30.161Z,93.65
2022-08-22T12:30:41.773Z,93.32
2022-08-22T12:33:20.759Z,93.23
2022-08-22T12:35:41.968Z,93.62
2022-08-22T12:37:54.772Z,93.47
2022-08-22T12:40:26.343Z,93.48
2022-08-22T12:42:49.596Z,93.67
2022-08-22T12:45:12.998Z,92.64
2022-08-22T12:47:35.065Z,91.73
2022-08-22T12:49:57.010Z,91.70
2022-08-22T12:52:19.617Z,91.72
2022-08-22T12:54:45.691Z,91.76
2022-08-22T12:56:59.242Z,90.45
2022-08-22T12:59:24.579Z,90.72
2022-08-22T13:01:36.518Z,90.37
2022-08-22T13:03:50.074Z,88.87
2022-08-22T13:06:00.327Z,88.40
2022-08-22T13:08:09.198Z,88.96
2022-08-22T13:10:40.883Z,88.49
2022-08-22T13:12:50.049Z,87.59
2022-08-22T13:14:58.673Z,87.59
2022-08-22T13:17:23.637Z,88.04
2022-08-22T13:19:31.909Z,88.10
2022-08-22T13:21:44.041Z,88.92
2022-08-22T13:23:54.197Z,89.53
2022-08-22T13:26:08.632Z,89.97
2022-08-22T13:28:14.972Z,90.68
2022-08-22T13:30:24.045Z,91.19
2022-08-22T13:32:35.961Z,91.86
2022-08-22T13:34:49.015Z,92.20
2022-08-22T13:36:59.303Z,92.60
2022-08-22T13:39:22.669Z,93.13
2022-08-22T13:41:31.469Z,93.48
2022-08-22T13:43:53.512Z,93.72
2022-08-22T13:46:02.659Z,93.19
2022-08-22T13:48:12.394Z,93.20
2022-08-22T13:50:21.933Z,93.41
2022-08-22T13:52:32.921Z,93.69
2022-08-22T13:54:54.728Z,93.96
2022-08-22T13:57:09.059Z,94.07
2022-08-22T13:59:47.460Z,94.52
2022-08-22T14:01:56.285Z,94.67
2022-08-22T14:04:17.766Z,95.14
2022-08-22T14:06:41.487Z,95.16
2022-08-22T14:08:50.668Z,95.43
2022-08-22T14:11:03.480Z,95.46
2022-08-22T14:13:41.138Z,95.94
2022-08-22T14:15:46.304Z,95.65
2022-08-22T14:17:55.712Z,96.02
2022-08-22T14:20:11.157Z,96.11
2022-08-22T14:22:21.445Z,95.93
2022-08-22T14:24:45.646Z,95.82
2022-08-22T14:26:57.886Z,96.10
2022-08-22T14:29:12.139Z,96.37
2022-08-22T14:31:25.791Z,96.41
2022-08-22T14:33:37.088Z,96.36
2022-08-22T14:35:52.714Z,96.16
2022-08-22T14:38:17.335Z,96.06
2022-08-22T14:40:27.570Z,95.69
2022-08-22T14:42:44.330Z,95.28
2022-08-22T14:45:06.730Z,94.59
2022-08-22T14:47:54.708Z,94.47
2022-08-22T14:49:53.472Z,94.12
2022-08-22T14:52:04.204Z,94.07
2022-08-22T14:54:14.018Z,94.53
2022-08-22T14:56:29.789Z,94.79
2022-08-22T14:58:38.011Z,95.09
2022-08-22T15:00:48.038Z,95.25
2022-08-22T15:03:05.432Z,95.11
2022-08-22T15:05:20.502Z,95.46
2022-08-22T15:07:28.257Z,95.11
2022-08-22T15:09:36.653Z,95.28
2022-08-22T15:11:49.374Z,95.29
2022-08-22T15:14:00.276Z,95.48
2022-08-22T15:16:15.815Z,94.98
2022-08-22T15:18:35.540Z,94.93
2022-08-22T15:20:45.432Z,95.24
2022-08-22T15:22:56.385Z,95.23
2022-08-22T15:25:06.496Z,95.37
2022-08-22T15:27:17.201Z,95.68
2022-08-22T15:29:25.956Z,95.75
2022-08-22T15:31:31.302Z,95.89
2022-08-22T15:33:40.208Z,96.00
2022-08-22T15:35:49.093Z,96.65
2022-08-22T15:38:00.306Z,97.23
2022-08-22T15:40:31.625Z,97.91
2022-08-22T15:42:40.669Z,98.78
2022-08-22T15:44:53.518Z,99.32
2022-08-22T15:47:12.038Z,99.92
2022-08-22T15:49:31.960Z,100.00
2022-08-22T15:51:46.354Z,100.00
2022-08-22T15:54:24.983Z,100.00
2022-08-22T15:56:35.046Z,100.00
2022-08-22T15:58:48.774Z,100.00
2022-08-22T16:01:19.152Z,100.00
2022-08-22T16:03:32.029Z,100.00
2022-08-22T16:05:46.536Z,100.00
2022-08-22T16:08:00.586Z,100.00
2022-08-22T16:10:10.144Z,100.00
2022-08-22T16:12:30.465Z,100.00
2022-08-22T16:14:51.213Z,100.00
2022-08-22T16:17:02.437Z,100.00
2022-08-22T16:19:22.742Z,100.00
2022-08-22T16:22:09.365Z,100.00
2022-08-22T16:24:55.048Z,100.00
2022-08-22T16:27:15.048Z,100.00
2022-08-22T16:29:41.414Z,100.00
2022-08-22T16:32:01.437Z,100.00
2022-08-22T16:34:38.253Z,100.00
2022-08-22T16:36:51.910Z,100.00
2022-08-22T16:38:58.458Z,100.00
2022-08-22T16:41:03.715Z,100.00
2022-08-22T16:43:18.679Z,100.00
2022-08-22T16:45:34.819Z,100.00
2022-08-22T16:47:42.928Z,100.00
2022-08-22T16:50:26.023Z,100.00
2022-08-22T16:52:54.964Z,100.00
2022-08-22T16:55:02.547Z,100.00
2022-08-22T16:57:20.378Z,100.00
2022-08-22T16:59:47.731Z,100.00
2022-08-22T17:02:17.632Z,100.00
2022-08-22T17:04:33.800Z,100.00
2022-08-22T17:06:56.478Z,100.00
2022-08-22T17:09:20.653Z,100.00
2022-08-22T17:11:40.556Z,100.00
2022-08-22T17:14:09.385Z,100.00
2022-08-22T17:16:31.777Z,100.00
2022-08-22T17:18:58.165Z,100.00
2022-08-22T17:21:10.931Z,100.00
2022-08-22T17:23:27.144Z,100.00
2022-08-22T17:25:47.867Z,100.00
2022-08-22T17:28:05.016Z,100.00
2022-08-22T17:30:12.877Z,100.00
2022-08-22T17:32:29.055Z,100.00
2022-08-22T17:34:42.249Z,100.00
2022-08-22T17:37:01.372Z,100.00
2022-08-22T17:39:29.094Z,100.00
2022-08-22T17:41:46.568Z,100.00
2022-08-22T17:44:02.967Z,100.00
2022-08-22T17:46:19.412Z,100.00
2022-08-22T17:48:28.845Z,100.00
2022-08-22T17:50:42.909Z,100.00
2022-08-22T17:52:55.109Z,100.00
2022-08-22T17:55:05.808Z,100.00
2022-08-22T17:57:22.429Z,100.00
2022-08-22T17:59:31.425Z,100.00
2022-08-22T18:01:47.260Z,100.00
2022-08-22T18:04:01.304Z,100.00
2022-08-22T18:06:10.311Z,100.00
2022-08-22T18:11:00.006Z,100.00
2022-08-22T18:13:10.133Z,100.00
2022-08-22T18:15:25.348Z,100.00
2022-08-22T18:17:37.482Z,100.00
2022-08-22T18:19:52.537Z,100.00
2022-08-22T18:22:01.640Z,100.00
2022-08-22T18:24:20.442Z,100.00
2022-08-22T18:26:33.665Z,100.00
2022-08-22T18:28:50.740Z,100.00
2022-08-22T18:31:01.495Z,100.00
2022-08-22T18:33:18.225Z,100.00
2022-08-22T18:35:28.967Z,100.00
2022-08-22T18:37:49.886Z,100.00
2022-08-22T18:39:59.429Z,100.00
2022-08-22T18:42:09.197Z,100.00
2022-08-22T18:44:21.263Z,100.00
2022-08-22T18:46:45.158Z,100.00
2022-08-22T18:49:14.075Z,100.00
2022-08-22T18:51:24.770Z,100.00
2022-08-22T18:53:45.412Z,100.00
2022-08-22T18:55:56.658Z,100.00
2022-08-22T18:58:34.340Z,100.00
2022-08-22T19:00:57.716Z,100.00
2022-08-22T19:03:19.425Z,100.00
2022-08-22T19:05:34.618Z,100.00
2022-08-22T19:08:03.068Z,100.00
2022-08-22T19:10:41.379Z,100.00
2022-08-22T19:13:09.786Z,100.00
2022-08-22T19:15:39.988Z,100.00
2022-08-22T19:18:22.816Z,100.00
2022-08-22T19:20:30.932Z,100.00
2022-08-22T19:22:37.623Z,100.00
2022-08-22T19:25:14.050Z,100.00
2022-08-22T19:27:31.197Z,100.00
2022-08-22T19:30:00.350Z,100.00
2022-08-22T19:32:12.930Z,100.00
2022-08-22T19:34:34.801Z,100.00
2022-08-22T19:36:39.767Z,100.00
2022-08-22T19:39:01.563Z,100.00
2022-08-22T19:41:06.789Z,100.00
2022-08-22T19:43:30.900Z,100.00
2022-08-22T19:45:41.442Z,100.00
2022-08-22T19:47:58.378Z,100.00
2022-08-22T19:50:10.304Z,100.00
2022-08-22T19:52:26.839Z,100.00
2022-08-22T19:54:34.764Z,100.00
2022-08-22T19:56:55.408Z,100.00
2022-08-22T19:59:15.367Z,100.00
2022-08-22T20:01:43.826Z,100.00
2022-08-22T20:03:54.687Z,100.00
2022-08-22T20:06:22.111Z,100.00
2022-08-22T20:08:51.207Z,100.00
2022-08-22T20:11:11.141Z,100.00
2022-08-22T20:13:23.655Z,100.00
2022-08-22T20:15:30.733Z,100.00
2022-08-22T20:17:43.402Z,100.00
2022-08-22T20:22:25.497Z,100.00
2022-08-22T20:24:39.841Z,100.00
2022-08-22T20:27:12.294Z,100.00
2022-08-22T20:29:16.092Z,100.00
2022-08-22T20:31:25.502Z,100.00
2022-08-22T20:33:34.444Z,100.00
2022-08-22T20:35:43.431Z,100.00
2022-08-22T20:38:06.584Z,100.00
2022-08-22T20:40:55.262Z,100.00
2022-08-22T20:42:52.646Z,100.00
2022-08-22T20:44:58.515Z,100.00
2022-08-22T20:47:08.076Z,100.00
2022-08-22T20:49:21.323Z,100.00
2022-08-22T20:51:29.561Z,100.00
2022-08-22T20:53:35.664Z,100.00
2022-08-22T20:55:51.814Z,100.00
2022-08-22T20:57:59.581Z,100.00
2022-08-22T21:00:11.124Z,100.00
2022-08-22T21:02:20.442Z,100.00
2022-08-22T21:04:30.859Z,100.00
2022-08-22T21:06:35.659Z,100.00
2022-08-22T21:08:42.034Z,100.00
2022-08-22T21:10:59.086Z,100.00
2022-08-22T21:13:07.737Z,100.00
2022-08-22T21:15:12.684Z,100.00
2022-08-22T21:17:27.246Z,100.00
2022-08-22T21:19:32.866Z,100.00
2022-08-22T21:21:37.763Z,100.00
2022-08-22T21:23:45.632Z,100.00
2022-08-22T21:25:57.114Z,100.00
2022-08-22T21:28:02.021Z,100.00
2022-08-22T21:30:11.363Z,100.00
2022-08-22T21:32:31.656Z,100.00
2022-08-22T21:34:45.479Z,100.00
2022-08-22T21:36:53.366Z,100.00
2022-08-22T21:39:01.615Z,100.00
2022-08-22T21:41:08.789Z,100.00
2022-08-22T21:43:30.543Z,100.00
2022-08-22T21:45:42.417Z,100.00
2022-08-22T21:47:47.172Z,100.00
2022-08-22T21:50:13.605Z,100.00
2022-08-22T21:52:28.909Z,100.00
2022-08-22T21:54:38.537Z,100.00
2022-08-22T21:56:43.307Z,100.00
2022-08-22T21:58:50.848Z,100.00
2022-08-22T22:00:59.245Z,100.00
2022-08-22T22:03:04.038Z,100.00
2022-08-22T22:05:14.290Z,100.00
2022-08-22T22:07:19.283Z,100.00
2022-08-22T22:09:24.159Z,100.00
2022-08-22T22:11:29.091Z,100.00
2022-08-22T22:13:33.959Z,100.00
2022-08-22T22:15:46.713Z,100.00
2022-08-22T22:17:51.746Z,100.00
2022-08-22T22:19:56.438Z,100.00
2022-08-22T22:22:01.148Z,100.00
2022-08-22T22:24:06.362Z,100.00
2022-08-22T22:26:11.661Z,100.00
2022-08-22T22:28:18.496Z,100.00
2022-08-22T22:30:23.220Z,100.00
2022-08-22T22:32:27.935Z,100.00
2022-08-22T22:34:32.623Z,100.00
2022-08-22T22:36:37.699Z,100.00
2022-08-22T22:38:42.666Z,100.00
2022-08-22T22:40:49.202Z,100.00
2022-08-22T22:42:53.806Z,100.00
2022-08-22T22:44:58.592Z,100.00
2022-08-22T22:47:04.296Z,100.00
2022-08-22T22:49:11.950Z,100.00
2022-08-22T22:51:16.692Z,100.00
2022-08-22T22:53:33.675Z,100.00
2022-08-22T22:55:47.008Z,100.00
2022-08-22T22:58:08.099Z,100.00
2022-08-22T23:00:16.840Z,100.00
2022-08-22T23:02:22.745Z,100.00
2022-08-22T23:04:27.815Z,100.00
2022-08-22T23:06:33.010Z,100.00
2022-08-22T23:08:37.831Z,100.00
2022-08-22T23:10:42.723Z,100.00
2022-08-22T23:12:47.328Z,100.00
2022-08-22T23:14:52.203Z,100.00
2022-08-22T23:16:57.711Z,100.00
2022-08-22T23:19:07.012Z,100.00
2022-08-22T23:21:17.813Z,100.00
2022-08-22T23:23:22.485Z,100.00
2022-08-22T23:25:27.312Z,100.00
2022-08-22T23:27:32.142Z,100.00
2022-08-22T23:29:37.546Z,100.00
2022-08-22T23:31:50.865Z,100.00
2022-08-22T23:33:56.216Z,100.00
2022-08-22T23:36:01.426Z,100.00
2022-08-22T23:38:06.170Z,100.00
2022-08-22T23:40:12.449Z,100.00
2022-08-22T23:42:18.792Z,100.00
2022-08-22T23:44:26.372Z,100.00
2022-08-22T23:46:31.245Z,100.00
2022-08-22T23:48:37.300Z,100.00
2022-08-22T23:50:41.990Z,100.00
2022-08-22T23:52:46.955Z,100.00
2022-08-22T23:54:54.637Z,100.00
2022-08-22T23:57:02.743Z,100.00
2022-08-22T23:59:18.767Z,100.00
